Time;durP1;ratioP1;P1;durP2;ratioP2;P2;SDS_P1;SDS_P2;PMS_P1;PMS_P2;Temp;Humidity;BMP_temperature;BMP_pressure;BME280_temperature;BME280_humidity;BME280_pressure;Samples;Min_cycle;Max_cycle;Signal;HPM_P1;HPM_P2
2021/04/28 00:00:05;;;;;;;13.47;7.60;;;;;;;8.45;65.80;94889.25;1052534;28;20138;-63
2021/04/28 00:00:37;;;;;;;19.67;8.77;;;;;;;8.45;65.48;94891.13;1052654;28;20417;-63
2021/04/28 00:01:08;;;;;;;19.17;8.73;;;;;;;8.43;66.19;94888.72;1052596;28;20020;-63
2021/04/28 00:01:39;;;;;;;19.02;8.63;;;;;;;8.44;65.96;94890.31;1052471;28;20055;-63
2021/04/28 00:02:10;;;;;;;11.40;8.00;;;;;;;8.41;66.50;94892.75;1052559;28;20016;-63
2021/04/28 00:02:40;;;;;;;15.30;8.73;;;;;;;8.39;66.41;94893.03;1052536;28;20027;-63
2021/04/28 00:03:10;;;;;;;14.73;8.20;;;;;;;8.38;66.56;94888.00;1052568;28;20024;-63
2021/04/28 00:03:41;;;;;;;16.20;8.60;;;;;;;8.39;66.37;94887.69;1052500;28;20530;-63
2021/04/28 00:04:11;;;;;;;13.17;8.27;;;;;;;8.40;66.92;94896.50;1052637;28;20024;-63
2021/04/28 00:04:42;;;;;;;13.77;8.67;;;;;;;8.37;67.00;94895.19;1052597;28;20020;-63
2021/04/28 00:05:12;;;;;;;20.90;8.87;;;;;;;8.39;67.39;94894.91;1052585;28;20036;-63
2021/04/28 00:05:43;;;;;;;16.23;8.87;;;;;;;8.34;67.08;94883.22;1052530;28;20024;-63
2021/04/28 00:06:13;;;;;;;18.73;8.73;;;;;;;8.29;67.08;94885.94;1052573;28;20024;-63
2021/04/28 00:06:45;;;;;;;13.77;8.23;;;;;;;8.29;67.59;94896.56;1052603;28;20543;-63
2021/04/28 00:07:16;;;;;;;18.40;9.00;;;;;;;8.29;67.61;94891.25;1052271;28;20035;-64
2021/04/28 00:07:46;;;;;;;15.43;8.77;;;;;;;8.31;67.55;94883.75;1052181;28;20412;-63
2021/04/28 00:08:17;;;;;;;13.63;8.87;;;;;;;8.32;67.32;94882.69;1052177;28;20446;-63
2021/04/28 00:08:47;;;;;;;15.13;8.90;;;;;;;8.33;67.29;94886.13;1052223;28;20389;-63
2021/04/28 00:09:18;;;;;;;16.77;8.90;;;;;;;8.32;67.56;94882.69;1052494;28;20504;-63
2021/04/28 00:09:48;;;;;;;12.40;8.40;;;;;;;8.33;67.78;94881.59;1052489;28;20027;-63
2021/04/28 00:10:20;;;;;;;16.73;9.50;;;;;;;8.35;67.98;94889.34;1052601;28;20021;-63
2021/04/28 00:10:51;;;;;;;17.40;8.98;;;;;;;8.31;67.86;94886.44;1052652;28;20350;-64
2021/04/28 00:11:21;;;;;;;18.13;8.77;;;;;;;8.32;67.78;94881.91;1052569;28;20028;-64
2021/04/28 00:11:52;;;;;;;11.90;8.57;;;;;;;8.33;68.11;94889.59;1052488;28;20078;-64
2021/04/28 00:12:22;;;;;;;13.27;8.87;;;;;;;8.34;67.90;94893.03;1052627;28;20070;-64
2021/04/28 00:12:52;;;;;;;15.20;8.93;;;;;;;8.33;68.07;94888.81;1052580;28;20046;-64
2021/04/28 00:13:23;;;;;;;16.33;9.20;;;;;;;8.37;67.84;94891.72;1052537;28;20020;-64
2021/04/28 00:13:53;;;;;;;14.50;9.10;;;;;;;8.37;68.49;94889.88;1052500;28;20012;-64
2021/04/28 00:14:24;;;;;;;15.60;9.23;;;;;;;8.35;68.65;94892.00;1052588;28;20024;-64
2021/04/28 00:14:54;;;;;;;16.40;9.10;;;;;;;8.31;68.92;94886.44;1053420;28;20035;-64
2021/04/28 00:15:26;;;;;;;12.57;8.67;;;;;;;8.31;68.93;94890.97;1053443;28;20496;-65
2021/04/28 00:15:57;;;;;;;17.48;9.20;;;;;;;8.29;69.10;94890.44;1053456;28;20585;-64
2021/04/28 00:16:27;;;;;;;15.47;8.87;;;;;;;8.29;69.11;94896.56;1053430;28;20017;-64
2021/04/28 00:16:58;;;;;;;17.23;9.20;;;;;;;8.31;68.78;94894.41;1053452;28;20023;-64
2021/04/28 00:17:28;;;;;;;15.07;9.13;;;;;;;8.30;69.25;94890.16;1053174;28;20356;-64
2021/04/28 00:17:59;;;;;;;19.23;9.33;;;;;;;8.32;68.69;94893.34;1053085;28;20035;-64
2021/04/28 00:18:29;;;;;;;14.63;8.53;;;;;;;8.34;68.68;94890.38;1053168;28;20511;-64
2021/04/28 00:19:00;;;;;;;14.27;8.63;;;;;;;8.34;68.73;94890.38;1053159;28;20472;-64
2021/04/28 00:19:30;;;;;;;12.27;8.63;;;;;;;8.36;68.90;94890.13;1053496;28;20020;-64
2021/04/28 00:20:01;;;;;;;15.17;9.23;;;;;;;8.38;68.62;94886.13;1053367;28;20020;-64
2021/04/28 00:20:39;;;;;;;13.90;8.90;;;;;;;8.34;68.71;94888.53;1053436;28;20453;-64
2021/04/28 00:21:09;;;;;;;14.00;8.40;;;;;;;8.36;68.58;94887.47;1053472;28;20028;-64
2021/04/28 00:21:40;;;;;;;15.93;9.20;;;;;;;8.34;69.33;94891.19;1053005;28;20384;-64
2021/04/28 00:22:11;;;;;;;17.08;9.32;;;;;;;8.30;69.43;94890.16;1053112;28;20024;-64
2021/04/28 00:22:41;;;;;;;16.63;9.30;;;;;;;8.33;69.45;94886.94;1053057;28;20012;-64
2021/04/28 00:23:11;;;;;;;16.37;8.67;;;;;;;8.30;69.60;94882.19;1049140;28;20103;-64
2021/04/28 00:23:42;;;;;;;12.30;8.93;;;;;;;8.34;69.12;94885.88;1053078;28;20092;-64
2021/04/28 00:24:13;;;;;;;15.87;9.20;;;;;;;8.28;69.66;94886.97;1053106;28;20603;-64
2021/04/28 00:24:43;;;;;;;18.97;8.87;;;;;;;8.29;69.42;94887.78;1053039;28;20380;-65
2021/04/28 00:25:15;;;;;;;14.40;9.50;;;;;;;8.32;69.38;94889.88;1053466;28;20392;-64
2021/04/28 00:25:45;;;;;;;16.88;9.38;;;;;;;8.28;69.52;94880.88;1053354;28;20061;-64
2021/04/28 00:26:16;;;;;;;13.73;9.13;;;;;;;8.25;70.07;94889.44;1053398;28;20479;-64
2021/04/28 00:26:47;;;;;;;16.60;9.50;;;;;;;8.20;70.16;94892.16;1053349;28;20020;-64
2021/04/28 00:27:17;;;;;;;15.83;8.80;;;;;;;8.19;70.01;94886.03;1053428;28;20254;-64
2021/04/28 00:27:48;;;;;;;11.60;8.97;;;;;;;8.18;70.33;94886.28;1053385;28;20031;-64
2021/04/28 00:28:18;;;;;;;14.93;9.13;;;;;;;8.20;70.28;94881.50;1053327;28;20031;-64
2021/04/28 00:28:49;;;;;;;18.27;9.97;;;;;;;8.24;69.99;94885.97;1053269;28;20027;-65
2021/04/28 00:29:19;;;;;;;14.83;9.53;;;;;;;8.21;70.23;94888.41;1053418;28;20048;-64
2021/04/28 00:29:50;;;;;;;16.80;9.93;;;;;;;8.19;70.52;94886.03;1053273;28;20028;-64
2021/04/28 00:30:20;;;;;;;15.17;9.07;;;;;;;8.21;70.72;94881.22;1053361;28;20024;-64
2021/04/28 00:30:51;;;;;;;15.03;9.23;;;;;;;8.22;70.74;94889.97;1053351;28;20399;-64
2021/04/28 00:31:21;;;;;;;12.37;8.83;;;;;;;8.18;70.27;94884.41;1053368;28;20130;-64
2021/04/28 00:31:52;;;;;;;19.13;9.63;;;;;;;8.17;70.83;94885.50;1053349;28;20141;-64
2021/04/28 00:32:22;;;;;;;16.37;9.33;;;;;;;8.12;70.63;94884.75;1053467;28;20027;-64
2021/04/28 00:32:53;;;;;;;16.40;9.63;;;;;;;8.15;70.82;94884.22;1053319;28;20043;-64
2021/04/28 00:33:23;;;;;;;19.95;9.52;;;;;;;8.16;70.85;94883.13;1053378;28;20038;-64
2021/04/28 00:33:54;;;;;;;16.37;9.30;;;;;;;8.18;70.98;94884.41;1053214;28;20031;-64
2021/04/28 00:34:24;;;;;;;18.23;9.50;;;;;;;8.17;71.00;94880.19;1053443;28;20027;-64
2021/04/28 00:34:55;;;;;;;12.80;9.30;;;;;;;8.18;70.80;94886.28;1053209;28;20059;-64
2021/04/28 00:35:26;;;;;;;17.70;9.30;;;;;;;8.18;71.11;94883.63;1053372;28;20056;-64
2021/04/28 00:35:56;;;;;;;12.47;8.90;;;;;;;8.16;70.93;94885.78;1053370;28;20039;-64
2021/04/28 00:36:27;;;;;;;12.70;9.17;;;;;;;8.14;70.85;94886.09;1053388;28;20448;-65
2021/04/28 00:36:57;;;;;;;14.90;9.30;;;;;;;8.11;71.33;94872.53;1053280;28;20465;-64
2021/04/28 00:37:27;;;;;;;13.30;9.47;;;;;;;8.11;71.38;94883.19;1053454;28;20472;-64
2021/04/28 00:37:58;;;;;;;14.57;9.53;;;;;;;8.07;71.21;94878.41;1053357;28;20030;-64
2021/04/28 00:38:28;;;;;;;15.90;9.93;;;;;;;8.12;70.99;94879.44;1053391;28;20027;-64
2021/04/28 00:38:59;;;;;;;16.17;9.57;;;;;;;8.08;71.26;94869.34;1053294;28;20020;-64
2021/04/28 00:39:29;;;;;;;16.90;10.07;;;;;;;8.07;71.39;94883.72;1053385;28;20024;-64
2021/04/28 00:40:00;;;;;;;18.03;10.17;;;;;;;8.06;71.91;94873.38;1053262;28;20089;-64
2021/04/28 00:40:32;;;;;;;15.83;10.47;;;;;;;8.09;71.40;94880.81;1053359;28;20488;-64
2021/04/28 00:41:06;;;;;;;12.00;8.85;;;;;;;8.08;71.32;94879.19;1044444;28;20032;-64
2021/04/28 00:41:37;;;;;;;16.67;9.88;;;;;;;8.05;72.10;94875.25;1044735;28;20028;-64
2021/04/28 00:42:07;;;;;;;16.23;10.17;;;;;;;8.02;71.82;94880.31;1040498;28;20025;-64
2021/04/28 00:42:38;;;;;;;15.27;10.07;;;;;;;8.03;71.87;94876.59;1037769;28;20095;-64
2021/04/28 00:43:08;;;;;;;17.00;10.13;;;;;;;8.04;72.00;94875.53;1044621;28;20021;-64
2021/04/28 00:43:39;;;;;;;13.57;9.93;;;;;;;8.01;71.89;94876.09;1040881;28;20085;-64
2021/04/28 00:44:10;;;;;;;13.50;9.73;;;;;;;8.03;71.96;94880.03;1040727;28;20025;-64
2021/04/28 00:44:40;;;;;;;15.67;9.63;;;;;;;8.04;72.17;94872.88;1040583;28;20021;-64
2021/04/28 00:45:11;;;;;;;15.43;9.90;;;;;;;8.03;71.83;94871.25;1032331;28;20050;-62
2021/04/28 00:45:43;;;;;;;15.68;9.90;;;;;;;8.05;72.08;94874.44;1036956;28;20121;-64
2021/04/28 00:46:14;;;;;;;12.98;9.75;;;;;;;8.02;72.19;94872.34;1045038;28;20032;-64
2021/04/28 00:46:45;;;;;;;17.07;9.90;;;;;;;7.99;72.33;94865.72;1049215;28;20040;-64
2021/04/28 00:47:15;;;;;;;14.02;9.43;;;;;;;8.01;71.55;94868.88;1053226;28;20027;-64
2021/04/28 00:47:46;;;;;;;15.03;9.67;;;;;;;8.02;72.24;94869.69;1053362;28;20043;-64
2021/04/28 00:48:16;;;;;;;17.90;9.90;;;;;;;8.01;72.34;94871.56;1053316;28;20059;-64
2021/04/28 00:48:46;;;;;;;17.00;9.27;;;;;;;8.02;72.34;94869.69;1053379;28;20478;-64
2021/04/28 00:49:17;;;;;;;18.23;9.53;;;;;;;7.99;72.33;94872.91;1053300;28;20020;-64
2021/04/28 00:49:47;;;;;;;15.17;10.03;;;;;;;8.01;72.59;94870.75;1053244;28;20374;-64
2021/04/28 00:50:20;;;;;;;15.90;9.40;;;;;;;8.04;72.51;94873.66;1053385;28;20024;-64
2021/04/28 00:50:51;;;;;;;16.35;9.90;;;;;;;8.03;72.50;94879.25;1053297;28;20027;-64
2021/04/28 00:51:22;;;;;;;15.02;9.43;;;;;;;8.03;72.08;94873.91;1053300;28;20107;-64
2021/04/28 00:51:52;;;;;;;14.90;10.00;;;;;;;8.00;72.36;94863.84;1053326;28;20028;-65
2021/04/28 00:52:22;;;;;;;15.53;9.37;;;;;;;7.99;72.61;94867.59;1053018;28;20012;-64
2021/04/28 00:52:53;;;;;;;14.67;9.93;;;;;;;7.98;72.54;94873.97;1048679;28;20032;-64
2021/04/28 00:53:24;;;;;;;13.80;9.33;;;;;;;7.99;72.43;94870.25;1044668;28;20017;-65
2021/04/28 00:53:54;;;;;;;16.73;10.45;;;;;;;8.00;72.17;94871.84;1044819;28;20013;-64
2021/04/28 00:54:25;;;;;;;19.03;9.60;;;;;;;8.03;72.56;94863.28;1048879;28;20024;-64
2021/04/28 00:54:55;;;;;;;17.93;10.87;;;;;;;7.99;72.72;94879.03;1044777;28;20029;-64
2021/04/28 00:55:26;;;;;;;16.93;9.47;;;;;;;8.00;72.58;94866.53;1048761;28;20016;-64
2021/04/28 00:55:57;;;;;;;15.23;9.60;;;;;;;8.01;72.31;94871.56;1048781;28;20477;-64
2021/04/28 00:56:27;;;;;;;15.48;9.43;;;;;;;7.98;72.79;94860.66;1044977;28;20025;-64
2021/04/28 00:56:58;;;;;;;16.43;10.43;;;;;;;7.97;72.48;94870.53;1048856;28;20040;-64
2021/04/28 00:57:28;;;;;;;14.80;9.70;;;;;;;7.97;72.90;94864.41;1048704;28;20032;-64
2021/04/28 00:57:59;;;;;;;15.70;10.03;;;;;;;7.94;72.58;94864.97;1048960;28;20094;-64
2021/04/28 00:58:30;;;;;;;15.35;9.73;;;;;;;7.96;72.93;94865.50;1053044;28;20073;-64
2021/04/28 00:59:00;;;;;;;18.27;9.93;;;;;;;7.95;72.15;94871.88;1053329;28;20428;-64
2021/04/28 00:59:31;;;;;;;15.40;9.70;;;;;;;7.91;72.45;94871.66;1053359;28;20388;-64
2021/04/28 01:00:06;;;;;;;16.10;10.40;;;;;;;7.91;72.86;94871.66;1053216;28;20457;-64
2021/04/28 01:00:37;;;;;;;19.52;10.48;;;;;;;7.92;72.90;94867.91;1053348;28;20048;-64
2021/04/28 01:01:07;;;;;;;15.80;9.77;;;;;;;7.91;72.97;94868.97;1053362;28;20036;-65
2021/04/28 01:01:38;;;;;;;13.80;9.90;;;;;;;7.90;72.80;94874.59;1053280;28;20027;-64
2021/04/28 01:02:08;;;;;;;13.53;10.30;;;;;;;7.88;72.75;94868.75;1053945;28;20104;-65
2021/04/28 01:02:39;;;;;;;13.20;10.03;;;;;;;7.86;72.79;94871.69;1055125;28;20258;-65
2021/04/28 01:03:09;;;;;;;19.93;10.27;;;;;;;7.88;72.82;94871.41;1054332;28;20016;-64
2021/04/28 01:03:40;;;;;;;13.20;9.07;;;;;;;7.86;73.36;94865.56;1052977;28;20016;-64
2021/04/28 01:04:10;;;;;;;17.60;10.10;;;;;;;7.86;72.76;94873.56;1044667;28;20378;-64
2021/04/28 01:04:41;;;;;;;16.20;9.60;;;;;;;7.87;73.30;94869.81;1040446;28;20080;-64
2021/04/28 01:05:11;;;;;;;14.43;9.33;;;;;;;7.89;73.13;94870.34;1036529;28;20022;-64
2021/04/28 01:05:42;;;;;;;16.70;10.30;;;;;;;7.92;72.78;94875.09;1040727;28;20021;-64
2021/04/28 01:06:12;;;;;;;13.93;9.77;;;;;;;7.94;72.50;94872.97;1036507;28;20053;-64
2021/04/28 01:06:44;;;;;;;15.10;10.10;;;;;;;7.97;72.35;94872.38;1040649;28;20013;-64
2021/04/28 01:07:15;;;;;;;16.33;10.27;;;;;;;7.99;72.45;94867.59;1044529;28;20024;-64
2021/04/28 01:07:46;;;;;;;13.77;10.00;;;;;;;8.00;72.14;94872.63;1041243;28;20025;-64
2021/04/28 01:08:17;;;;;;;16.35;10.00;;;;;;;8.01;72.63;94874.22;1049099;28;20087;-64
2021/04/28 01:08:47;;;;;;;15.20;10.27;;;;;;;7.99;72.38;94863.06;1052967;28;20523;-65
2021/04/28 01:09:18;;;;;;;16.80;10.47;;;;;;;7.99;72.17;94867.59;1053007;28;20016;-64
2021/04/28 01:09:48;;;;;;;15.93;10.10;;;;;;;8.00;72.50;94866.53;1052944;28;20492;-64
2021/04/28 01:10:28;;;;;;;15.03;10.20;;;;;;;7.94;72.50;94864.97;1040453;28;20025;-64
2021/04/28 01:10:59;;;;;;;18.23;10.23;;;;;;;7.94;72.66;94875.63;1040573;28;20030;-64
2021/04/28 01:11:29;;;;;;;17.60;10.00;;;;;;;7.97;72.73;94869.72;1041790;28;20018;-64
2021/04/28 01:12:01;;;;;;;19.27;10.70;;;;;;;7.93;72.77;94872.16;1040679;28;20029;-64
2021/04/28 01:12:31;;;;;;;21.90;10.45;;;;;;;7.94;72.44;94875.63;1044544;28;20554;-64
2021/04/28 01:13:03;;;;;;;12.93;9.50;;;;;;;7.95;72.39;94877.22;1044686;28;20027;-64
2021/04/28 01:13:34;;;;;;;15.35;10.10;;;;;;;7.97;72.35;94873.19;1045100;28;20477;-64
2021/04/28 01:14:04;;;;;;;14.90;10.17;;;;;;;8.00;72.46;94869.19;1049272;28;20134;-64
2021/04/28 01:14:35;;;;;;;14.53;10.20;;;;;;;8.00;72.32;94866.53;1049010;28;20039;-64
2021/04/28 01:15:11;;;;;;;20.93;11.03;;;;;;;7.99;72.26;94871.06;1048712;28;20021;-64
2021/04/28 01:15:42;;;;;;;15.55;9.90;;;;;;;7.93;72.92;94874.81;1048741;28;20024;-64
2021/04/28 01:16:12;;;;;;;16.40;10.03;;;;;;;7.91;72.58;94862.88;1049684;28;20024;-64
2021/04/28 01:16:42;;;;;;;18.90;10.10;;;;;;;7.88;73.11;94882.03;1045463;28;20394;-64
2021/04/28 01:17:13;;;;;;;18.77;11.07;;;;;;;7.90;72.89;94877.25;1048748;28;20059;-64
2021/04/28 01:17:43;;;;;;;15.63;10.13;;;;;;;7.91;72.52;94868.97;1048733;28;20024;-64
2021/04/28 01:18:15;;;;;;;14.50;9.90;;;;;;;7.95;72.34;94874.53;1048827;28;20032;-64
2021/04/28 01:18:45;;;;;;;13.68;10.15;;;;;;;7.97;72.61;94875.06;1056973;28;20020;-64
2021/04/28 01:19:16;;;;;;;16.47;10.43;;;;;;;7.98;72.55;94863.31;1052953;28;20082;-64
2021/04/28 01:19:46;;;;;;;12.40;9.00;;;;;;;7.96;72.51;94873.47;1044599;28;20029;-64
2021/04/28 01:20:18;;;;;;;15.20;9.63;;;;;;;7.94;72.70;94868.44;1044691;28;20021;-64
2021/04/28 01:20:48;;;;;;;18.88;10.40;;;;;;;7.91;72.80;94870.84;1044681;28;20022;-64
2021/04/28 01:21:19;;;;;;;13.73;9.70;;;;;;;7.86;73.32;94873.56;1048887;28;20025;-64
2021/04/28 01:21:50;;;;;;;18.43;10.57;;;;;;;7.88;73.22;94869.53;1057006;28;20028;-64
2021/04/28 01:22:21;;;;;;;15.43;10.32;;;;;;;7.82;73.12;94871.44;1052918;28;20020;-64
2021/04/28 01:22:52;;;;;;;15.57;10.05;;;;;;;7.80;73.20;94867.50;1048677;28;20013;-64
2021/04/28 01:23:22;;;;;;;22.07;11.03;;;;;;;7.83;73.25;94866.94;1044593;28;20025;-64
2021/04/28 01:23:53;;;;;;;13.50;9.83;;;;;;;7.82;73.46;94866.13;1044898;28;20386;-64
2021/04/28 01:24:23;;;;;;;16.07;10.27;;;;;;;7.85;73.50;94861.34;1036562;28;20570;-64
2021/04/28 01:24:54;;;;;;;18.53;10.73;;;;;;;7.79;73.46;94864.03;1040443;28;20025;-64
2021/04/28 01:25:25;;;;;;;14.40;9.80;;;;;;;7.79;73.15;94863.25;1044611;28;20478;-64
2021/04/28 01:25:55;;;;;;;14.90;10.30;;;;;;;7.81;73.45;94863.75;1044501;28;20017;-64
2021/04/28 01:26:28;;;;;;;13.67;10.07;;;;;;;7.82;73.19;94870.66;1052174;28;20090;-64
2021/04/28 01:27:00;;;;;;;14.95;9.70;;;;;;;7.82;73.13;94860.00;1048613;28;20017;-64
2021/04/28 01:27:31;;;;;;;15.25;10.27;;;;;;;7.81;73.65;94863.75;1044552;28;20105;-64
2021/04/28 01:28:06;;;;;;;16.97;10.30;;;;;;;7.80;73.41;94862.97;1036992;28;20526;-64
2021/04/28 01:28:36;;;;;;;17.92;9.93;;;;;;;7.81;73.24;94863.75;1037510;28;20021;-64
2021/04/28 01:29:07;;;;;;;18.57;10.87;;;;;;;7.76;73.82;94861.13;1037227;28;20026;-64
2021/04/28 01:29:37;;;;;;;17.37;10.20;;;;;;;7.73;73.82;94865.16;1041163;28;20029;-64
2021/04/28 01:30:09;;;;;;;16.93;10.57;;;;;;;7.73;73.64;94859.06;1036368;28;20108;-64
2021/04/28 01:30:46;;;;;;;18.48;11.02;;;;;;;7.73;73.65;94862.50;1036516;28;20074;-64
2021/04/28 01:31:17;;;;;;;16.13;9.70;;;;;;;7.69;74.16;94869.44;1041601;28;20037;-64
2021/04/28 01:31:47;;;;;;;16.47;10.63;;;;;;;7.70;73.95;94868.38;1046882;28;20024;-64
2021/04/28 01:32:20;;;;;;;14.80;10.53;;;;;;;7.67;74.36;94865.47;1052970;28;20012;-64
2021/04/28 01:32:50;;;;;;;13.88;9.98;;;;;;;7.67;73.77;94871.56;1048572;28;20100;-64
2021/04/28 01:33:31;;;;;;;15.27;10.50;;;;;;;7.67;74.28;94863.59;1040429;28;20105;-64
2021/04/28 01:34:03;;;;;;;15.95;10.57;;;;;;;7.72;73.82;94865.41;1036422;28;20377;-64
2021/04/28 01:34:33;;;;;;;20.30;10.65;;;;;;;7.71;74.20;94863.84;1039538;28;20308;-64
2021/04/28 01:35:04;;;;;;;20.83;10.03;;;;;;;7.73;74.13;94864.38;1039720;28;20014;-65
2021/04/28 01:35:34;;;;;;;17.10;10.80;;;;;;;7.68;73.99;94865.19;1045617;28;20104;-64
2021/04/28 01:36:17;;;;;;;19.03;10.23;;;;;;;7.67;74.14;94865.47;1040406;28;20029;-64
2021/04/28 01:36:47;;;;;;;17.33;10.60;;;;;;;7.64;74.30;94863.38;1039816;28;20029;-64
2021/04/28 01:37:18;;;;;;;17.37;10.23;;;;;;;7.60;74.35;94867.66;1040272;28;20028;-64
2021/04/28 01:37:48;;;;;;;13.67;10.13;;;;;;;7.60;74.15;94868.44;1040459;28;20470;-64
2021/04/28 01:38:19;;;;;;;14.33;10.07;;;;;;;7.62;74.08;94866.28;1042109;28;20013;-64
2021/04/28 01:38:51;;;;;;;16.00;10.15;;;;;;;7.60;74.68;94868.44;1044412;28;20020;-64
2021/04/28 01:39:21;;;;;;;15.50;10.55;;;;;;;7.55;74.74;94863.97;1040936;28;20439;-64
2021/04/28 01:39:52;;;;;;;16.73;10.77;;;;;;;7.61;74.16;94866.56;1048664;28;20058;-64
2021/04/28 01:40:22;;;;;;;19.10;10.07;;;;;;;7.55;74.62;94855.19;1048969;28;20058;-64
2021/04/28 01:40:53;;;;;;;12.23;9.40;;;;;;;7.54;74.94;94859.72;1048692;28;20024;-64
2021/04/28 01:41:24;;;;;;;15.63;11.20;;;;;;;7.54;74.71;94862.38;1044458;28;20065;-64
2021/04/28 01:41:54;;;;;;;17.03;11.30;;;;;;;7.55;74.69;94861.31;1044565;28;20021;-64
2021/04/28 01:42:24;;;;;;;17.47;10.13;;;;;;;7.53;74.91;94865.31;1040548;28;20729;-64
2021/04/28 01:42:55;;;;;;;20.57;11.00;;;;;;;7.54;75.01;94864.25;1044661;28;20351;-64
2021/04/28 01:43:25;;;;;;;16.73;10.90;;;;;;;7.53;74.72;94862.66;1044535;28;20477;-64
2021/04/28 01:43:56;;;;;;;17.93;10.43;;;;;;;7.53;75.07;94871.44;1040373;28;20498;-64
2021/04/28 01:44:26;;;;;;;14.87;10.47;;;;;;;7.51;75.08;94864.78;1040504;28;20466;-64
2021/04/28 01:44:56;;;;;;;16.93;10.77;;;;;;;7.49;75.24;94861.63;1040257;28;20018;-64
2021/04/28 01:45:27;;;;;;;15.13;10.93;;;;;;;7.49;75.09;94864.28;1040580;28;20038;-64
2021/04/28 01:45:57;;;;;;;18.17;10.97;;;;;;;7.46;75.29;94859.50;1044376;28;20029;-64
2021/04/28 01:46:29;;;;;;;15.20;10.13;;;;;;;7.42;75.45;94861.94;1032462;28;20456;-64
2021/04/28 01:47:00;;;;;;;16.00;10.55;;;;;;;7.48;75.56;94868.03;1036546;28;20108;-64
2021/04/28 01:47:30;;;;;;;19.93;10.67;;;;;;;7.50;74.95;94866.66;1040625;28;20260;-64
2021/04/28 01:48:04;;;;;;;16.33;10.50;;;;;;;7.49;75.07;94861.63;1045013;28;20535;-63
2021/04/28 01:48:34;;;;;;;14.70;10.07;;;;;;;7.50;74.82;94860.56;1052824;28;20020;-63
2021/04/28 01:49:05;;;;;;;13.37;10.30;;;;;;;7.50;75.05;94856.03;1044425;28;20124;-63
2021/04/28 01:49:35;;;;;;;13.77;9.87;;;;;;;7.49;75.27;94864.28;1040770;28;20028;-63
2021/04/28 01:50:08;;;;;;;14.90;10.20;;;;;;;7.50;75.02;94864.00;1032002;28;20487;-63
2021/04/28 01:50:38;;;;;;;13.05;9.90;;;;;;;7.46;75.20;94867.47;1032620;28;20569;-63
2021/04/28 01:51:09;;;;;;;17.03;10.70;;;;;;;7.44;75.26;94867.78;1032198;28;20080;-63
2021/04/28 01:51:39;;;;;;;15.13;10.87;;;;;;;7.45;75.36;94861.38;1036629;28;20018;-63
2021/04/28 01:52:10;;;;;;;15.10;10.50;;;;;;;7.44;75.56;94867.78;1040591;28;20025;-63
2021/04/28 01:52:42;;;;;;;15.77;10.70;;;;;;;7.44;75.73;94866.97;1044623;28;20073;-63
2021/04/28 01:53:15;;;;;;;15.35;10.73;;;;;;;7.39;75.68;94862.50;1045584;28;20493;-63
2021/04/28 01:53:45;;;;;;;16.92;10.98;;;;;;;7.40;75.41;94863.28;1046375;28;20020;-63
2021/04/28 01:54:17;;;;;;;19.90;10.83;;;;;;;7.41;75.89;94867.53;1046487;28;20092;-63
2021/04/28 01:54:47;;;;;;;22.83;10.65;;;;;;;7.39;75.27;94864.34;1048266;28;20091;-63
2021/04/28 01:55:18;;;;;;;17.23;10.50;;;;;;;7.40;75.44;94866.72;1051197;28;20082;-63
2021/04/28 01:56:09;;;;;;;16.00;10.80;;;;;;;7.44;75.34;94865.13;1042677;28;20029;-64
2021/04/28 01:56:40;;;;;;;15.65;10.90;;;;;;;7.40;75.57;94864.06;1033915;28;20037;-63
2021/04/28 01:57:10;;;;;;;17.43;11.30;;;;;;;7.44;75.48;94866.97;1038549;28;20037;-64
2021/04/28 01:57:42;;;;;;;15.30;10.43;;;;;;;7.45;75.35;94865.91;1042684;28;20041;-64
2021/04/28 01:58:12;;;;;;;16.30;10.88;;;;;;;7.39;75.70;94872.34;1037262;28;20093;-63
2021/04/28 01:58:43;;;;;;;14.23;10.00;;;;;;;7.43;75.38;94866.19;1040414;28;20487;-63
2021/04/28 01:59:17;;;;;;;15.70;10.20;;;;;;;7.43;75.68;94863.53;1036426;28;20458;-63
2021/04/28 01:59:48;;;;;;;17.08;10.63;;;;;;;7.40;75.52;94861.41;1036206;28;20021;-64
2021/04/28 02:00:19;;;;;;;13.98;10.43;;;;;;;7.38;75.44;94866.22;1032843;28;20037;-63
2021/04/28 02:00:50;;;;;;;15.55;10.23;;;;;;;7.33;75.83;94866.25;1037847;28;20033;-64
2021/04/28 02:01:21;;;;;;;18.10;10.77;;;;;;;7.39;75.71;94861.69;1041106;28;20065;-63
2021/04/28 02:01:53;;;;;;;14.50;10.10;;;;;;;7.38;75.40;94862.78;1049059;28;20020;-63
2021/04/28 02:02:23;;;;;;;15.25;10.68;;;;;;;7.39;76.07;94865.16;1048515;28;20029;-63
2021/04/28 02:02:54;;;;;;;16.97;10.40;;;;;;;7.42;75.72;94871.75;1044744;28;20029;-65
2021/04/28 02:03:25;;;;;;;15.43;10.40;;;;;;;7.39;75.81;94862.50;1044433;28;20025;-63
2021/04/28 02:03:55;;;;;;;14.60;10.82;;;;;;;7.39;75.99;94864.34;1040604;28;20077;-63
2021/04/28 02:04:25;;;;;;;14.77;10.33;;;;;;;7.37;75.64;94863.81;1044505;28;20037;-63
2021/04/28 02:04:56;;;;;;;17.80;11.00;;;;;;;7.40;75.42;94858.75;1044592;28;20029;-63
2021/04/28 02:05:26;;;;;;;16.73;10.90;;;;;;;7.39;75.73;94861.69;1044617;28;20017;-63
2021/04/28 02:05:59;;;;;;;18.30;10.60;;;;;;;7.38;76.13;94855.59;1044304;28;20021;-63
2021/04/28 02:06:29;;;;;;;15.25;10.95;;;;;;;7.37;75.95;94861.16;1040546;28;20021;-63
2021/04/28 02:06:59;;;;;;;14.97;10.57;;;;;;;7.36;75.83;94865.69;1036561;28;20025;-63
2021/04/28 02:07:30;;;;;;;15.40;11.50;;;;;;;7.38;75.69;94862.78;1040594;28;20017;-63
2021/04/28 02:08:01;;;;;;;14.63;10.63;;;;;;;7.38;75.72;94860.91;1040449;28;20029;-63
2021/04/28 02:08:33;;;;;;;16.60;10.70;;;;;;;7.36;75.77;94863.03;1044571;28;20119;-63
2021/04/28 02:09:04;;;;;;;17.02;11.23;;;;;;;7.36;75.83;94867.56;1052650;28;20020;-63
2021/04/28 02:09:34;;;;;;;16.77;10.98;;;;;;;7.35;75.70;94863.31;1052831;28;20032;-63
2021/04/28 02:10:06;;;;;;;14.00;10.70;;;;;;;7.35;75.92;94855.34;1052534;28;20483;-63
2021/04/28 02:10:36;;;;;;;14.63;11.02;;;;;;;7.37;75.67;94856.66;1052673;28;20499;-63
2021/04/28 02:11:07;;;;;;;16.47;11.00;;;;;;;7.37;75.75;94859.31;1052665;28;20024;-63
2021/04/28 02:11:37;;;;;;;17.27;10.57;;;;;;;7.35;75.80;94858.78;1048724;28;20043;-63
2021/04/28 02:12:11;;;;;;;13.87;10.60;;;;;;;7.30;75.98;94859.63;1048487;28;20024;-63
2021/04/28 02:12:41;;;;;;;16.85;11.00;;;;;;;7.29;76.01;94854.59;1044383;28;20498;-63
2021/04/28 02:13:15;;;;;;;16.63;10.40;;;;;;;7.25;76.53;94856.22;1040800;28;20044;-63
2021/04/28 02:13:47;;;;;;;14.75;10.27;;;;;;;7.26;76.16;94863.09;1041210;28;20494;-63
2021/04/28 02:14:22;;;;;;;16.35;10.77;;;;;;;7.26;76.22;94860.44;1045221;28;20025;-63
2021/04/28 02:14:52;;;;;;;15.25;10.80;;;;;;;7.23;76.21;94859.16;1049791;28;20117;-63
2021/04/28 02:15:23;;;;;;;18.20;10.63;;;;;;;7.22;76.19;94857.56;1045586;28;20481;-63
2021/04/28 02:15:54;;;;;;;17.73;10.43;;;;;;;7.23;76.31;94853.03;1048513;28;20393;-63
2021/04/28 02:16:25;;;;;;;16.77;10.87;;;;;;;7.21;76.60;94855.16;1040227;28;20025;-63
2021/04/28 02:16:56;;;;;;;15.45;10.45;;;;;;;7.26;76.36;94852.47;1040883;28;20021;-64
2021/04/28 02:17:26;;;;;;;21.00;10.50;;;;;;;7.25;76.69;94857.00;1044384;28;20120;-63
2021/04/28 02:18:00;;;;;;;15.00;10.10;;;;;;;7.28;75.92;94858.31;1044888;28;20020;-63
2021/04/28 02:18:30;;;;;;;15.18;10.35;;;;;;;7.28;76.60;94853.78;1044369;28;20363;-63
2021/04/28 02:19:03;;;;;;;16.93;10.00;;;;;;;7.27;76.28;94860.19;1044793;28;20028;-63
2021/04/28 02:19:34;;;;;;;16.25;10.48;;;;;;;7.27;76.24;94851.44;1048435;28;20469;-63
2021/04/28 02:20:06;;;;;;;14.35;10.80;;;;;;;7.24;76.62;94850.09;1049077;28;20025;-63
2021/04/28 02:20:37;;;;;;;13.15;10.50;;;;;;;7.21;76.33;94850.63;1052711;28;20488;-63
2021/04/28 02:21:07;;;;;;;17.80;11.37;;;;;;;7.25;76.38;94850.88;1044280;28;20025;-63
2021/04/28 02:21:48;;;;;;;19.73;11.23;;;;;;;7.24;76.19;94851.97;1031900;28;20080;-63
2021/04/28 02:22:19;;;;;;;20.05;11.00;;;;;;;7.22;76.54;94852.25;1032216;28;20442;-63
2021/04/28 02:22:49;;;;;;;16.50;11.00;;;;;;;7.22;76.43;94851.47;1032059;28;20026;-63
2021/04/28 02:23:19;;;;;;;15.90;11.03;;;;;;;7.24;76.30;94855.41;1033531;28;20026;-63
2021/04/28 02:23:50;;;;;;;14.73;11.23;;;;;;;7.22;76.30;94852.25;1033117;28;20022;-63
2021/04/28 02:24:20;;;;;;;15.77;11.60;;;;;;;7.22;76.68;94849.59;1032140;28;20018;-63
2021/04/28 02:24:51;;;;;;;14.00;10.33;;;;;;;7.25;76.71;94856.22;1036282;28;20026;-63
2021/04/28 02:25:21;;;;;;;14.97;10.83;;;;;;;7.22;76.56;94854.91;1044421;28;20025;-63